sensor_id;sensor_type;location;lat;lon;timestamp;P1;durP1;ratioP1;P2;durP2;ratioP2
11691;SDS011;33659;42.672;23.354;2024-01-15T00:01:14;71.50;;;32.17;;
11691;SDS011;33659;42.672;23.354;2024-01-15T00:03:42;74.93;;;36.10;;
11691;SDS011;33659;42.672;23.354;2024-01-15T00:06:09;70.53;;;35.33;;
11691;SDS011;33659;42.672;23.354;2024-01-15T00:08:36;96.40;;;46.07;;
11691;SDS011;33659;42.672;23.354;2024-01-15T00:11:02;82.43;;;41.40;;
11691;SDS011;33659;42.672;23.354;2024-01-15T00:13:29;70.17;;;34.43;;
11691;SDS011;33659;42.672;23.354;2024-01-15T00:15:56;62.30;;;35.23;;
11691;SDS011;33659;42.672;23.354;2024-01-15T00:18:23;64.43;;;30.63;;
11691;SDS011;33659;42.672;23.354;2024-01-15T00:20:51;73.80;;;36.17;;
11691;SDS011;33659;42.672;23.354;2024-01-15T00:23:17;75.13;;;37.47;;
11691;SDS011;33659;42.672;23.354;2024-01-15T00:25:44;71.23;;;37.63;;
11691;SDS011;33659;42.672;23.354;2024-01-15T00:28:11;95.33;;;42.30;;
11691;SDS011;33659;42.672;23.354;2024-01-15T00:30:38;57.70;;;29.07;;
11691;SDS011;33659;42.672;23.354;2024-01-15T00:33:12;42.10;;;20.90;;
11691;SDS011;33659;42.672;23.354;2024-01-15T00:35:39;31.80;;;17.57;;
11691;SDS011;33659;42.672;23.354;2024-01-15T00:38:10;28.70;;;16.23;;
11691;SDS011;33659;42.672;23.354;2024-01-15T00:40:37;55.43;;;31.67;;
11691;SDS011;33659;42.672;23.354;2024-01-15T00:43:04;65.50;;;32.13;;
11691;SDS011;33659;42.672;23.354;2024-01-15T00:45:32;61.63;;;31.57;;
11691;SDS011;33659;42.672;23.354;2024-01-15T00:47:59;59.43;;;32.97;;
11691;SDS011;33659;42.672;23.354;2024-01-15T00:50:26;75.43;;;32.93;;
11691;SDS011;33659;42.672;23.354;2024-01-15T00:52:53;63.50;;;31.17;;
11691;SDS011;33659;42.672;23.354;2024-01-15T00:55:21;65.63;;;30.47;;
11691;SDS011;33659;42.672;23.354;2024-01-15T00:57:48;50.40;;;26.97;;
11691;SDS011;33659;42.672;23.354;2024-01-15T01:00:15;57.67;;;29.07;;
11691;SDS011;33659;42.672;23.354;2024-01-15T01:02:43;59.53;;;29.20;;
11691;SDS011;33659;42.672;23.354;2024-01-15T01:05:10;55.33;;;29.13;;
11691;SDS011;33659;42.672;23.354;2024-01-15T01:07:36;52.83;;;28.43;;
11691;SDS011;33659;42.672;23.354;2024-01-15T01:10:04;52.60;;;28.03;;
11691;SDS011;33659;42.672;23.354;2024-01-15T01:12:33;61.00;;;31.93;;
11691;SDS011;33659;42.672;23.354;2024-01-15T01:15:00;59.30;;;29.20;;
11691;SDS011;33659;42.672;23.354;2024-01-15T01:17:27;53.17;;;28.17;;
11691;SDS011;33659;42.672;23.354;2024-01-15T01:19:55;40.00;;;20.60;;
11691;SDS011;33659;42.672;23.354;2024-01-15T01:22:22;28.43;;;17.57;;
11691;SDS011;33659;42.672;23.354;2024-01-15T01:24:49;35.77;;;17.90;;
11691;SDS011;33659;42.672;23.354;2024-01-15T01:27:15;35.90;;;16.33;;
11691;SDS011;33659;42.672;23.354;2024-01-15T01:29:44;31.13;;;15.60;;
11691;SDS011;33659;42.672;23.354;2024-01-15T01:32:11;28.67;;;15.87;;
11691;SDS011;33659;42.672;23.354;2024-01-15T01:34:40;33.63;;;15.30;;
11691;SDS011;33659;42.672;23.354;2024-01-15T01:37:07;30.37;;;16.30;;
11691;SDS011;33659;42.672;23.354;2024-01-15T01:39:34;30.43;;;16.90;;
11691;SDS011;33659;42.672;23.354;2024-01-15T01:42:01;31.20;;;16.90;;
11691;SDS011;33659;42.672;23.354;2024-01-15T01:44:28;26.87;;;15.67;;
11691;SDS011;33659;42.672;23.354;2024-01-15T01:46:56;33.90;;;16.20;;
11691;SDS011;33659;42.672;23.354;2024-01-15T01:49:23;34.30;;;16.17;;
11691;SDS011;33659;42.672;23.354;2024-01-15T01:51:51;31.83;;;14.67;;
11691;SDS011;33659;42.672;23.354;2024-01-15T01:54:18;29.07;;;14.43;;
11691;SDS011;33659;42.672;23.354;2024-01-15T01:56:46;22.57;;;13.23;;
11691;SDS011;33659;42.672;23.354;2024-01-15T01:59:14;28.20;;;15.37;;
11691;SDS011;33659;42.672;23.354;2024-01-15T02:01:41;28.07;;;14.37;;
11691;SDS011;33659;42.672;23.354;2024-01-15T02:04:10;27.40;;;14.57;;
11691;SDS011;33659;42.672;23.354;2024-01-15T02:06:36;26.40;;;14.07;;
11691;SDS011;33659;42.672;23.354;2024-01-15T02:09:03;19.03;;;12.47;;
11691;SDS011;33659;42.672;23.354;2024-01-15T02:11:31;25.03;;;14.07;;
11691;SDS011;33659;42.672;23.354;2024-01-15T02:13:58;26.47;;;13.93;;
11691;SDS011;33659;42.672;23.354;2024-01-15T02:16:24;24.33;;;13.60;;
11691;SDS011;33659;42.672;23.354;2024-01-15T02:18:51;27.30;;;14.30;;
11691;SDS011;33659;42.672;23.354;2024-01-15T02:21:19;18.70;;;11.73;;
11691;SDS011;33659;42.672;23.354;2024-01-15T02:23:49;21.73;;;11.53;;
11691;SDS011;33659;42.672;23.354;2024-01-15T02:26:16;19.03;;;11.00;;
11691;SDS011;33659;42.672;23.354;2024-01-15T02:28:43;19.90;;;10.57;;
11691;SDS011;33659;42.672;23.354;2024-01-15T02:31:10;21.47;;;11.30;;
11691;SDS011;33659;42.672;23.354;2024-01-15T02:33:37;25.07;;;10.87;;
11691;SDS011;33659;42.672;23.354;2024-01-15T02:36:05;16.37;;;9.50;;
11691;SDS011;33659;42.672;23.354;2024-01-15T02:38:32;20.10;;;10.00;;
11691;SDS011;33659;42.672;23.354;2024-01-15T02:41:00;17.73;;;10.90;;
11691;SDS011;33659;42.672;23.354;2024-01-15T02:43:26;17.97;;;9.33;;
11691;SDS011;33659;42.672;23.354;2024-01-15T02:45:53;13.30;;;8.83;;
11691;SDS011;33659;42.672;23.354;2024-01-15T02:48:20;17.63;;;10.47;;
11691;SDS011;33659;42.672;23.354;2024-01-15T02:50:46;15.23;;;9.07;;
11691;SDS011;33659;42.672;23.354;2024-01-15T02:53:13;16.67;;;9.57;;
11691;SDS011;33659;42.672;23.354;2024-01-15T02:55:39;16.53;;;9.73;;
11691;SDS011;33659;42.672;23.354;2024-01-15T02:58:08;24.07;;;12.67;;
11691;SDS011;33659;42.672;23.354;2024-01-15T03:00:34;25.97;;;12.63;;
11691;SDS011;33659;42.672;23.354;2024-01-15T03:03:01;26.50;;;13.47;;
11691;SDS011;33659;42.672;23.354;2024-01-15T03:05:28;27.63;;;15.87;;
11691;SDS011;33659;42.672;23.354;2024-01-15T03:07:55;29.40;;;15.20;;
11691;SDS011;33659;42.672;23.354;2024-01-15T03:10:21;37.63;;;17.53;;
11691;SDS011;33659;42.672;23.354;2024-01-15T03:12:48;36.00;;;18.10;;
11691;SDS011;33659;42.672;23.354;2024-01-15T03:15:16;38.57;;;20.37;;
11691;SDS011;33659;42.672;23.354;2024-01-15T03:17:49;36.30;;;20.60;;
11691;SDS011;33659;42.672;23.354;2024-01-15T03:20:16;33.63;;;19.53;;
11691;SDS011;33659;42.672;23.354;2024-01-15T03:22:42;35.97;;;18.40;;
11691;SDS011;33659;42.672;23.354;2024-01-15T03:25:09;33.73;;;17.13;;
11691;SDS011;33659;42.672;23.354;2024-01-15T03:27:35;33.20;;;18.23;;
11691;SDS011;33659;42.672;23.354;2024-01-15T03:30:02;29.87;;;17.63;;
11691;SDS011;33659;42.672;23.354;2024-01-15T03:32:30;32.40;;;16.63;;
11691;SDS011;33659;42.672;23.354;2024-01-15T03:34:57;29.13;;;15.97;;
11691;SDS011;33659;42.672;23.354;2024-01-15T03:37:24;33.07;;;16.17;;
11691;SDS011;33659;42.672;23.354;2024-01-15T03:39:50;27.83;;;16.03;;
11691;SDS011;33659;42.672;23.354;2024-01-15T03:42:17;28.63;;;15.83;;
11691;SDS011;33659;42.672;23.354;2024-01-15T03:44:44;29.10;;;15.80;;
11691;SDS011;33659;42.672;23.354;2024-01-15T03:47:10;28.40;;;14.43;;
11691;SDS011;33659;42.672;23.354;2024-01-15T03:49:38;25.40;;;13.73;;
11691;SDS011;33659;42.672;23.354;2024-01-15T03:52:05;26.90;;;13.53;;
11691;SDS011;33659;42.672;23.354;2024-01-15T03:54:32;22.83;;;12.63;;
11691;SDS011;33659;42.672;23.354;2024-01-15T03:56:59;22.30;;;11.77;;
11691;SDS011;33659;42.672;23.354;2024-01-15T03:59:26;17.10;;;10.40;;
11691;SDS011;33659;42.672;23.354;2024-01-15T04:01:52;27.57;;;12.90;;
11691;SDS011;33659;42.672;23.354;2024-01-15T04:04:19;26.30;;;12.47;;
11691;SDS011;33659;42.672;23.354;2024-01-15T04:06:47;24.40;;;12.17;;
11691;SDS011;33659;42.672;23.354;2024-01-15T04:09:15;28.73;;;14.40;;
11691;SDS011;33659;42.672;23.354;2024-01-15T04:11:42;24.70;;;12.43;;
11691;SDS011;33659;42.672;23.354;2024-01-15T04:14:08;22.30;;;14.07;;
11691;SDS011;33659;42.672;23.354;2024-01-15T04:16:35;26.17;;;13.90;;
11691;SDS011;33659;42.672;23.354;2024-01-15T04:19:03;28.63;;;13.67;;
11691;SDS011;33659;42.672;23.354;2024-01-15T04:21:30;26.40;;;14.07;;
11691;SDS011;33659;42.672;23.354;2024-01-15T04:23:58;23.73;;;13.73;;
11691;SDS011;33659;42.672;23.354;2024-01-15T04:26:25;30.03;;;14.90;;
11691;SDS011;33659;42.672;23.354;2024-01-15T04:28:52;23.57;;;13.93;;
11691;SDS011;33659;42.672;23.354;2024-01-15T04:31:22;25.73;;;14.80;;
11691;SDS011;33659;42.672;23.354;2024-01-15T04:33:49;29.27;;;15.80;;
11691;SDS011;33659;42.672;23.354;2024-01-15T04:36:16;29.00;;;14.83;;
11691;SDS011;33659;42.672;23.354;2024-01-15T04:38:43;28.80;;;14.37;;
11691;SDS011;33659;42.672;23.354;2024-01-15T04:41:12;34.53;;;15.40;;
11691;SDS011;33659;42.672;23.354;2024-01-15T04:43:39;27.33;;;14.73;;
11691;SDS011;33659;42.672;23.354;2024-01-15T04:46:06;27.40;;;14.73;;
11691;SDS011;33659;42.672;23.354;2024-01-15T04:48:33;28.13;;;15.53;;
11691;SDS011;33659;42.672;23.354;2024-01-15T04:50:59;28.40;;;14.37;;
11691;SDS011;33659;42.672;23.354;2024-01-15T04:53:26;19.47;;;12.73;;
11691;SDS011;33659;42.672;23.354;2024-01-15T04:55:53;23.47;;;14.07;;
11691;SDS011;33659;42.672;23.354;2024-01-15T04:58:21;24.53;;;13.83;;
11691;SDS011;33659;42.672;23.354;2024-01-15T05:00:50;21.37;;;12.30;;
11691;SDS011;33659;42.672;23.354;2024-01-15T05:03:16;23.93;;;13.70;;
11691;SDS011;33659;42.672;23.354;2024-01-15T05:05:43;31.83;;;16.33;;
11691;SDS011;33659;42.672;23.354;2024-01-15T05:08:10;28.23;;;14.27;;
11691;SDS011;33659;42.672;23.354;2024-01-15T05:10:36;24.33;;;12.77;;
11691;SDS011;33659;42.672;23.354;2024-01-15T05:13:03;20.87;;;12.90;;
11691;SDS011;33659;42.672;23.354;2024-01-15T05:15:31;33.03;;;14.83;;
11691;SDS011;33659;42.672;23.354;2024-01-15T05:17:58;26.27;;;15.77;;
11691;SDS011;33659;42.672;23.354;2024-01-15T05:20:25;37.87;;;15.97;;
11691;SDS011;33659;42.672;23.354;2024-01-15T05:22:51;24.97;;;15.80;;
11691;SDS011;33659;42.672;23.354;2024-01-15T05:25:18;27.60;;;14.87;;
11691;SDS011;33659;42.672;23.354;2024-01-15T05:27:45;23.53;;;14.50;;
11691;SDS011;33659;42.672;23.354;2024-01-15T05:30:12;31.07;;;16.07;;
11691;SDS011;33659;42.672;23.354;2024-01-15T05:32:40;23.97;;;13.57;;
11691;SDS011;33659;42.672;23.354;2024-01-15T05:35:07;25.83;;;14.53;;
11691;SDS011;33659;42.672;23.354;2024-01-15T05:37:34;28.50;;;14.77;;
11691;SDS011;33659;42.672;23.354;2024-01-15T05:40:00;29.50;;;15.70;;
11691;SDS011;33659;42.672;23.354;2024-01-15T05:42:29;27.57;;;15.53;;
11691;SDS011;33659;42.672;23.354;2024-01-15T05:44:57;31.43;;;17.00;;
11691;SDS011;33659;42.672;23.354;2024-01-15T05:47:25;29.13;;;17.37;;
11691;SDS011;33659;42.672;23.354;2024-01-15T05:49:53;33.47;;;16.73;;
11691;SDS011;33659;42.672;23.354;2024-01-15T05:52:22;31.10;;;16.33;;
11691;SDS011;33659;42.672;23.354;2024-01-15T05:54:49;33.23;;;15.73;;
11691;SDS011;33659;42.672;23.354;2024-01-15T05:57:16;34.83;;;16.13;;
11691;SDS011;33659;42.672;23.354;2024-01-15T05:59:43;25.23;;;16.03;;
11691;SDS011;33659;42.672;23.354;2024-01-15T06:02:11;28.00;;;15.40;;
11691;SDS011;33659;42.672;23.354;2024-01-15T06:04:38;38.53;;;20.43;;
11691;SDS011;33659;42.672;23.354;2024-01-15T06:07:06;39.33;;;18.40;;
11691;SDS011;33659;42.672;23.354;2024-01-15T06:09:33;35.67;;;19.13;;
11691;SDS011;33659;42.672;23.354;2024-01-15T06:11:59;32.97;;;18.10;;
11691;SDS011;33659;42.672;23.354;2024-01-15T06:14:26;37.50;;;18.97;;
11691;SDS011;33659;42.672;23.354;2024-01-15T06:16:53;30.57;;;18.47;;
11691;SDS011;33659;42.672;23.354;2024-01-15T06:19:19;36.30;;;19.77;;
11691;SDS011;33659;42.672;23.354;2024-01-15T06:21:46;40.67;;;20.13;;
11691;SDS011;33659;42.672;23.354;2024-01-15T06:24:14;29.57;;;15.90;;
11691;SDS011;33659;42.672;23.354;2024-01-15T06:26:43;38.57;;;17.23;;
11691;SDS011;33659;42.672;23.354;2024-01-15T06:29:09;36.57;;;18.73;;
11691;SDS011;33659;42.672;23.354;2024-01-15T06:31:36;30.73;;;18.13;;
11691;SDS011;33659;42.672;23.354;2024-01-15T06:34:03;39.13;;;19.70;;
11691;SDS011;33659;42.672;23.354;2024-01-15T06:36:30;37.30;;;18.70;;
11691;SDS011;33659;42.672;23.354;2024-01-15T06:38:57;39.73;;;19.73;;
11691;SDS011;33659;42.672;23.354;2024-01-15T06:41:25;33.10;;;18.50;;
11691;SDS011;33659;42.672;23.354;2024-01-15T06:43:52;39.83;;;19.40;;
11691;SDS011;33659;42.672;23.354;2024-01-15T06:46:19;31.63;;;18.77;;
11691;SDS011;33659;42.672;23.354;2024-01-15T06:48:47;38.57;;;19.73;;
11691;SDS011;33659;42.672;23.354;2024-01-15T06:51:14;37.60;;;21.37;;
11691;SDS011;33659;42.672;23.354;2024-01-15T06:53:41;35.27;;;17.87;;
11691;SDS011;33659;42.672;23.354;2024-01-15T06:56:09;39.33;;;19.67;;
11691;SDS011;33659;42.672;23.354;2024-01-15T06:58:37;33.23;;;19.17;;
11691;SDS011;33659;42.672;23.354;2024-01-15T07:01:04;39.20;;;20.77;;
11691;SDS011;33659;42.672;23.354;2024-01-15T07:03:31;35.20;;;19.30;;
11691;SDS011;33659;42.672;23.354;2024-01-15T07:05:58;33.93;;;20.33;;
11691;SDS011;33659;42.672;23.354;2024-01-15T07:08:24;47.87;;;20.33;;
11691;SDS011;33659;42.672;23.354;2024-01-15T07:10:51;41.23;;;20.10;;
11691;SDS011;33659;42.672;23.354;2024-01-15T07:13:18;35.80;;;19.33;;
11691;SDS011;33659;42.672;23.354;2024-01-15T07:15:46;35.57;;;19.33;;
11691;SDS011;33659;42.672;23.354;2024-01-15T07:18:13;41.77;;;20.13;;
11691;SDS011;33659;42.672;23.354;2024-01-15T07:20:39;38.67;;;19.47;;
11691;SDS011;33659;42.672;23.354;2024-01-15T07:23:06;43.30;;;21.77;;
11691;SDS011;33659;42.672;23.354;2024-01-15T07:25:34;44.10;;;20.53;;
11691;SDS011;33659;42.672;23.354;2024-01-15T07:28:01;40.67;;;21.00;;
11691;SDS011;33659;42.672;23.354;2024-01-15T07:30:28;40.60;;;21.33;;
11691;SDS011;33659;42.672;23.354;2024-01-15T07:32:57;42.03;;;22.47;;
11691;SDS011;33659;42.672;23.354;2024-01-15T07:35:23;44.67;;;21.77;;
11691;SDS011;33659;42.672;23.354;2024-01-15T07:37:50;40.80;;;22.33;;
11691;SDS011;33659;42.672;23.354;2024-01-15T07:40:17;37.13;;;21.60;;
11691;SDS011;33659;42.672;23.354;2024-01-15T07:42:45;46.23;;;21.57;;
11691;SDS011;33659;42.672;23.354;2024-01-15T07:45:12;41.27;;;19.10;;
11691;SDS011;33659;42.672;23.354;2024-01-15T07:47:39;36.17;;;18.87;;
11691;SDS011;33659;42.672;23.354;2024-01-15T07:52:40;33.13;;;18.43;;
11691;SDS011;33659;42.672;23.354;2024-01-15T07:55:08;49.93;;;22.83;;
11691;SDS011;33659;42.672;23.354;2024-01-15T07:57:34;39.63;;;20.87;;
11691;SDS011;33659;42.672;23.354;2024-01-15T08:00:02;37.73;;;20.17;;
11691;SDS011;33659;42.672;23.354;2024-01-15T08:02:30;39.40;;;21.00;;
11691;SDS011;33659;42.672;23.354;2024-01-15T08:04:57;36.93;;;21.63;;
11691;SDS011;33659;42.672;23.354;2024-01-15T08:07:24;32.43;;;18.43;;
11691;SDS011;33659;42.672;23.354;2024-01-15T08:09:53;33.80;;;18.13;;
11691;SDS011;33659;42.672;23.354;2024-01-15T08:12:19;28.13;;;16.10;;
11691;SDS011;33659;42.672;23.354;2024-01-15T08:14:47;27.60;;;16.73;;
11691;SDS011;33659;42.672;23.354;2024-01-15T08:17:14;31.63;;;18.13;;
11691;SDS011;33659;42.672;23.354;2024-01-15T08:19:41;41.17;;;18.77;;
11691;SDS011;33659;42.672;23.354;2024-01-15T08:22:08;38.63;;;20.20;;
11691;SDS011;33659;42.672;23.354;2024-01-15T08:24:35;38.17;;;19.33;;
11691;SDS011;33659;42.672;23.354;2024-01-15T08:27:03;41.33;;;18.47;;
11691;SDS011;33659;42.672;23.354;2024-01-15T08:29:30;35.60;;;17.77;;
11691;SDS011;33659;42.672;23.354;2024-01-15T08:31:58;35.13;;;19.07;;
11691;SDS011;33659;42.672;23.354;2024-01-15T08:34:25;34.57;;;18.90;;
11691;SDS011;33659;42.672;23.354;2024-01-15T08:36:52;37.20;;;18.97;;
11691;SDS011;33659;42.672;23.354;2024-01-15T08:39:18;35.30;;;19.03;;
11691;SDS011;33659;42.672;23.354;2024-01-15T08:41:46;38.53;;;18.40;;
11691;SDS011;33659;42.672;23.354;2024-01-15T08:44:14;31.30;;;18.83;;
11691;SDS011;33659;42.672;23.354;2024-01-15T08:46:40;37.43;;;18.47;;
11691;SDS011;33659;42.672;23.354;2024-01-15T08:49:07;37.27;;;18.70;;
11691;SDS011;33659;42.672;23.354;2024-01-15T08:51:34;31.90;;;17.50;;
11691;SDS011;33659;42.672;23.354;2024-01-15T08:54:00;28.00;;;16.23;;
11691;SDS011;33659;42.672;23.354;2024-01-15T08:56:27;32.83;;;17.00;;
11691;SDS011;33659;42.672;23.354;2024-01-15T08:58:54;30.13;;;17.37;;
11691;SDS011;33659;42.672;23.354;2024-01-15T09:01:22;29.60;;;16.13;;
11691;SDS011;33659;42.672;23.354;2024-01-15T09:03:49;31.13;;;16.80;;
11691;SDS011;33659;42.672;23.354;2024-01-15T09:06:16;38.80;;;19.73;;
11691;SDS011;33659;42.672;23.354;2024-01-15T09:08:42;34.53;;;20.13;;
11691;SDS011;33659;42.672;23.354;2024-01-15T09:11:09;44.70;;;21.03;;
11691;SDS011;33659;42.672;23.354;2024-01-15T09:13:35;39.47;;;19.50;;
11691;SDS011;33659;42.672;23.354;2024-01-15T09:16:02;47.47;;;24.77;;
11691;SDS011;33659;42.672;23.354;2024-01-15T09:18:30;49.30;;;25.00;;
11691;SDS011;33659;42.672;23.354;2024-01-15T09:20:57;59.40;;;30.20;;
11691;SDS011;33659;42.672;23.354;2024-01-15T09:23:23;62.47;;;32.37;;
11691;SDS011;33659;42.672;23.354;2024-01-15T09:25:50;49.17;;;27.07;;
11691;SDS011;33659;42.672;23.354;2024-01-15T09:28:17;60.60;;;30.37;;
11691;SDS011;33659;42.672;23.354;2024-01-15T09:30:44;58.57;;;28.47;;
11691;SDS011;33659;42.672;23.354;2024-01-15T09:33:12;54.17;;;28.00;;
11691;SDS011;33659;42.672;23.354;2024-01-15T09:35:40;44.03;;;24.50;;
11691;SDS011;33659;42.672;23.354;2024-01-15T09:38:07;42.83;;;22.63;;
11691;SDS011;33659;42.672;23.354;2024-01-15T09:40:33;39.50;;;22.80;;
11691;SDS011;33659;42.672;23.354;2024-01-15T09:43:04;35.67;;;21.43;;
11691;SDS011;33659;42.672;23.354;2024-01-15T09:45:31;40.60;;;22.13;;
11691;SDS011;33659;42.672;23.354;2024-01-15T09:47:57;42.83;;;22.83;;
11691;SDS011;33659;42.672;23.354;2024-01-15T09:50:24;47.57;;;23.27;;
11691;SDS011;33659;42.672;23.354;2024-01-15T09:52:52;35.90;;;21.50;;
11691;SDS011;33659;42.672;23.354;2024-01-15T09:55:22;38.83;;;22.53;;
11691;SDS011;33659;42.672;23.354;2024-01-15T09:57:49;41.93;;;21.97;;
11691;SDS011;33659;42.672;23.354;2024-01-15T10:00:17;46.60;;;21.43;;
11691;SDS011;33659;42.672;23.354;2024-01-15T10:02:44;45.83;;;22.20;;
11691;SDS011;33659;42.672;23.354;2024-01-15T10:05:11;33.70;;;18.83;;
11691;SDS011;33659;42.672;23.354;2024-01-15T10:07:38;36.87;;;19.67;;
11691;SDS011;33659;42.672;23.354;2024-01-15T10:10:07;34.43;;;18.10;;
11691;SDS011;33659;42.672;23.354;2024-01-15T10:12:36;39.63;;;18.77;;
11691;SDS011;33659;42.672;23.354;2024-01-15T10:15:05;42.00;;;23.27;;
11691;SDS011;33659;42.672;23.354;2024-01-15T10:17:36;57.60;;;27.67;;
11691;SDS011;33659;42.672;23.354;2024-01-15T10:20:06;52.17;;;27.03;;
11691;SDS011;33659;42.672;23.354;2024-01-15T10:22:34;49.23;;;25.20;;
11691;SDS011;33659;42.672;23.354;2024-01-15T10:25:03;40.53;;;23.67;;
11691;SDS011;33659;42.672;23.354;2024-01-15T10:27:31;45.10;;;25.07;;
11691;SDS011;33659;42.672;23.354;2024-01-15T10:29:59;44.37;;;23.57;;
11691;SDS011;33659;42.672;23.354;2024-01-15T10:32:26;55.10;;;27.43;;
11691;SDS011;33659;42.672;23.354;2024-01-15T10:34:52;52.57;;;25.03;;
11691;SDS011;33659;42.672;23.354;2024-01-15T10:37:19;47.93;;;23.00;;
11691;SDS011;33659;42.672;23.354;2024-01-15T10:39:46;48.73;;;24.40;;
11691;SDS011;33659;42.672;23.354;2024-01-15T10:42:13;46.20;;;23.53;;
11691;SDS011;33659;42.672;23.354;2024-01-15T10:44:42;40.10;;;22.87;;
11691;SDS011;33659;42.672;23.354;2024-01-15T10:47:09;41.63;;;23.03;;
11691;SDS011;33659;42.672;23.354;2024-01-15T10:49:37;41.50;;;21.13;;
11691;SDS011;33659;42.672;23.354;2024-01-15T10:52:04;40.83;;;21.73;;
11691;SDS011;33659;42.672;23.354;2024-01-15T10:54:30;44.57;;;23.03;;
11691;SDS011;33659;42.672;23.354;2024-01-15T10:56:58;42.40;;;23.43;;
11691;SDS011;33659;42.672;23.354;2024-01-15T10:59:24;42.73;;;23.90;;
11691;SDS011;33659;42.672;23.354;2024-01-15T11:01:53;43.33;;;22.57;;
11691;SDS011;33659;42.672;23.354;2024-01-15T11:04:20;38.33;;;21.60;;
11691;SDS011;33659;42.672;23.354;2024-01-15T11:06:48;45.00;;;23.50;;
11691;SDS011;33659;42.672;23.354;2024-01-15T11:09:17;51.00;;;24.50;;
11691;SDS011;33659;42.672;23.354;2024-01-15T11:11:44;45.23;;;23.43;;
11691;SDS011;33659;42.672;23.354;2024-01-15T11:17:02;47.00;;;22.10;;
11691;SDS011;33659;42.672;23.354;2024-01-15T11:19:42;40.17;;;21.23;;
11691;SDS011;33659;42.672;23.354;2024-01-15T11:22:10;38.37;;;22.23;;
11691;SDS011;33659;42.672;23.354;2024-01-15T11:24:57;42.10;;;21.87;;
11691;SDS011;33659;42.672;23.354;2024-01-15T11:27:39;31.00;;;18.67;;
11691;SDS011;33659;42.672;23.354;2024-01-15T11:30:08;35.20;;;19.10;;
11691;SDS011;33659;42.672;23.354;2024-01-15T11:32:38;28.07;;;16.83;;
11691;SDS011;33659;42.672;23.354;2024-01-15T11:35:06;26.83;;;15.87;;
11691;SDS011;33659;42.672;23.354;2024-01-15T11:43:09;32.07;;;14.33;;
11691;SDS011;33659;42.672;23.354;2024-01-15T11:45:38;32.80;;;15.27;;
11691;SDS011;33659;42.672;23.354;2024-01-15T11:48:10;27.87;;;15.17;;
11691;SDS011;33659;42.672;23.354;2024-01-15T11:50:39;27.60;;;14.57;;
11691;SDS011;33659;42.672;23.354;2024-01-15T11:53:10;24.63;;;14.30;;
11691;SDS011;33659;42.672;23.354;2024-01-15T11:55:43;26.37;;;14.60;;
11691;SDS011;33659;42.672;23.354;2024-01-15T11:58:11;24.17;;;14.47;;
11691;SDS011;33659;42.672;23.354;2024-01-15T12:00:40;23.40;;;14.20;;
11691;SDS011;33659;42.672;23.354;2024-01-15T12:03:11;27.10;;;15.50;;
11691;SDS011;33659;42.672;23.354;2024-01-15T12:05:37;31.43;;;14.20;;
11691;SDS011;33659;42.672;23.354;2024-01-15T12:08:05;24.10;;;14.23;;
11691;SDS011;33659;42.672;23.354;2024-01-15T12:10:35;28.70;;;14.50;;
11691;SDS011;33659;42.672;23.354;2024-01-15T12:13:04;27.87;;;14.13;;
11691;SDS011;33659;42.672;23.354;2024-01-15T12:15:32;21.73;;;12.90;;
11691;SDS011;33659;42.672;23.354;2024-01-15T12:17:59;25.77;;;14.10;;
11691;SDS011;33659;42.672;23.354;2024-01-15T12:20:29;20.33;;;12.37;;
11691;SDS011;33659;42.672;23.354;2024-01-15T12:22:56;28.80;;;13.07;;
11691;SDS011;33659;42.672;23.354;2024-01-15T12:25:23;27.13;;;14.60;;
11691;SDS011;33659;42.672;23.354;2024-01-15T12:27:52;26.57;;;13.73;;
11691;SDS011;33659;42.672;23.354;2024-01-15T12:30:19;20.80;;;13.60;;
11691;SDS011;33659;42.672;23.354;2024-01-15T12:32:46;27.37;;;15.03;;
11691;SDS011;33659;42.672;23.354;2024-01-15T12:35:13;22.20;;;13.37;;
11691;SDS011;33659;42.672;23.354;2024-01-15T12:37:42;21.20;;;13.07;;
11691;SDS011;33659;42.672;23.354;2024-01-15T12:40:11;27.20;;;13.33;;
11691;SDS011;33659;42.672;23.354;2024-01-15T12:42:39;31.47;;;14.10;;
11691;SDS011;33659;42.672;23.354;2024-01-15T12:45:06;22.53;;;13.17;;
11691;SDS011;33659;42.672;23.354;2024-01-15T12:47:34;19.97;;;13.30;;
11691;SDS011;33659;42.672;23.354;2024-01-15T12:50:04;23.80;;;13.87;;
11691;SDS011;33659;42.672;23.354;2024-01-15T12:52:32;25.67;;;13.37;;
11691;SDS011;33659;42.672;23.354;2024-01-15T12:55:00;24.00;;;13.33;;
11691;SDS011;33659;42.672;23.354;2024-01-15T12:57:27;24.73;;;13.27;;
11691;SDS011;33659;42.672;23.354;2024-01-15T12:59:54;27.27;;;13.77;;
11691;SDS011;33659;42.672;23.354;2024-01-15T13:02:21;31.97;;;14.27;;
11691;SDS011;33659;42.672;23.354;2024-01-15T13:04:48;25.63;;;14.33;;
11691;SDS011;33659;42.672;23.354;2024-01-15T13:07:15;26.40;;;13.87;;
11691;SDS011;33659;42.672;23.354;2024-01-15T13:09:42;23.43;;;12.83;;
11691;SDS011;33659;42.672;23.354;2024-01-15T13:12:10;17.90;;;11.23;;
11691;SDS011;33659;42.672;23.354;2024-01-15T13:14:36;25.67;;;12.30;;
11691;SDS011;33659;42.672;23.354;2024-01-15T13:17:03;26.40;;;13.47;;
11691;SDS011;33659;42.672;23.354;2024-01-15T13:19:31;29.73;;;11.97;;
11691;SDS011;33659;42.672;23.354;2024-01-15T13:21:59;20.33;;;11.97;;
11691;SDS011;33659;42.672;23.354;2024-01-15T13:24:25;22.03;;;13.10;;
11691;SDS011;33659;42.672;23.354;2024-01-15T13:26:52;24.50;;;11.97;;
11691;SDS011;33659;42.672;23.354;2024-01-15T13:29:21;21.27;;;12.13;;
11691;SDS011;33659;42.672;23.354;2024-01-15T13:31:48;32.80;;;12.80;;
11691;SDS011;33659;42.672;23.354;2024-01-15T13:34:14;18.70;;;12.47;;
11691;SDS011;33659;42.672;23.354;2024-01-15T13:36:41;21.13;;;12.87;;
11691;SDS011;33659;42.672;23.354;2024-01-15T13:39:08;21.67;;;13.33;;
11691;SDS011;33659;42.672;23.354;2024-01-15T13:41:35;19.20;;;11.87;;
11691;SDS011;33659;42.672;23.354;2024-01-15T13:44:01;24.67;;;13.20;;
11691;SDS011;33659;42.672;23.354;2024-01-15T13:46:30;21.17;;;12.93;;
11691;SDS011;33659;42.672;23.354;2024-01-15T13:48:56;20.17;;;12.63;;
11691;SDS011;33659;42.672;23.354;2024-01-15T13:51:23;23.97;;;13.37;;
11691;SDS011;33659;42.672;23.354;2024-01-15T13:53:50;21.67;;;12.97;;
11691;SDS011;33659;42.672;23.354;2024-01-15T13:56:18;18.90;;;12.13;;
11691;SDS011;33659;42.672;23.354;2024-01-15T13:58:44;26.87;;;12.83;;
11691;SDS011;33659;42.672;23.354;2024-01-15T14:01:13;25.10;;;13.43;;
11691;SDS011;33659;42.672;23.354;2024-01-15T14:03:41;24.13;;;13.77;;
11691;SDS011;33659;42.672;23.354;2024-01-15T14:06:07;26.33;;;13.60;;
11691;SDS011;33659;42.672;23.354;2024-01-15T14:08:35;21.47;;;12.87;;
11691;SDS011;33659;42.672;23.354;2024-01-15T14:11:02;24.93;;;13.80;;
11691;SDS011;33659;42.672;23.354;2024-01-15T14:13:31;21.03;;;12.37;;
11691;SDS011;33659;42.672;23.354;2024-01-15T14:15:57;24.63;;;13.37;;
11691;SDS011;33659;42.672;23.354;2024-01-15T14:18:24;25.70;;;13.50;;
11691;SDS011;33659;42.672;23.354;2024-01-15T14:20:54;23.93;;;13.23;;